Map

Track Data

SID SEASON NUMBER BASIN SUBBASIN NAME ISO_TIME NATURE LAT LON WMO_WIND WMO_PRES WMO_AGENCY TRACK_TYPE DIST2LAND LANDFALL IFLAG USA_AGENCY USA_ATCF_ID USA_LAT USA_LON USA_RECORD USA_STATUS USA_WIND USA_PRES USA_SSHS USA_R34_NE USA_R34_SE USA_R34_SW USA_R34_NW USA_R50_NE USA_R50_SE USA_R50_SW USA_R50_NW USA_R64_NE USA_R64_SE USA_R64_SW USA_R64_NW USA_POCI USA_ROCI USA_RMW USA_EYE TOKYO_LAT TOKYO_LON TOKYO_GRADE TOKYO_WIND TOKYO_PRES TOKYO_R50_DIR TOKYO_R50_LONG TOKYO_R50_SHORT TOKYO_R30_DIR TOKYO_R30_LONG TOKYO_R30_SHORT TOKYO_LAND CMA_LAT CMA_LON CMA_CAT CMA_WIND CMA_PRES HKO_LAT HKO_LON HKO_CAT HKO_WIND HKO_PRES NEWDELHI_LAT NEWDELHI_LON NEWDELHI_GRADE NEWDELHI_WIND NEWDELHI_PRES NEWDELHI_CI NEWDELHI_DP NEWDELHI_POCI REUNION_LAT REUNION_LON REUNION_TYPE REUNION_WIND REUNION_PRES REUNION_TNUM REUNION_CI REUNION_RMW REUNION_R34_NE REUNION_R34_SE REUNION_R34_SW REUNION_R34_NW REUNION_R50_NE REUNION_R50_SE REUNION_R50_SW REUNION_R50_NW REUNION_R64_NE REUNION_R64_SE REUNION_R64_SW REUNION_R64_NW BOM_LAT BOM_LON BOM_TYPE BOM_WIND BOM_PRES BOM_TNUM BOM_CI BOM_RMW BOM_R34_NE BOM_R34_SE BOM_R34_SW BOM_R34_NW BOM_R50_NE BOM_R50_SE BOM_R50_SW BOM_R50_NW BOM_R64_NE BOM_R64_SE BOM_R64_SW BOM_R64_NW BOM_ROCI BOM_POCI BOM_EYE BOM_POS_METHOD BOM_PRES_METHOD NADI_LAT NADI_LON NADI_CAT NADI_WIND NADI_PRES WELLINGTON_LAT WELLINGTON_LON WELLINGTON_WIND WELLINGTON_PRES DS824_LAT DS824_LON DS824_STAGE DS824_WIND DS824_PRES TD9636_LAT TD9636_LON TD9636_STAGE TD9636_WIND TD9636_PRES TD9635_LAT TD9635_LON TD9635_WIND TD9635_PRES TD9635_ROCI NEUMANN_LAT NEUMANN_LON NEUMANN_CLASS NEUMANN_WIND NEUMANN_PRES MLC_LAT MLC_LON MLC_CLASS MLC_WIND MLC_PRES USA_GUST BOM_GUST BOM_GUST_PER REUNION_GUST REUNION_GUST_PER USA_SEAHGT USA_SEARAD_NE USA_SEARAD_SE USA_SEARAD_SW USA_SEARAD_NW STORM_SPEED STORM_DIR
1981151N11255 1981 37 EP MM ADRIAN 1981-05-30 18:00:00 TS 11.4000 -105.200 30 hurdat_epa main 789 750 O_________O___ hurdat_epa EP011981 11.4000 -105.200 TD 30 -1 11.4000 -105.200 1 30 8 338
1981151N11255 1981 37 EP MM ADRIAN 1981-05-30 21:00:00 TS 11.7854 -105.354 main 754 722 P_________P___ EP011981 11.7875 -105.360 TD 30 -1 11.7790 -105.338 1 30 7 345
1981151N11255 1981 37 EP MM ADRIAN 1981-05-31 00:00:00 TS 12.1000 -105.400 30 hurdat_epa main 722 697 O_________O___ hurdat_epa EP011981 12.1000 -105.400 TD 30 -1 12.1000 -105.400 1 30 5 10
1981151N11255 1981 37 EP MM ADRIAN 1981-05-31 03:00:00 TS 12.2957 -105.266 main 697 676 P_________P___ EP011981 12.2875 -105.245 TD 30 -1 12.3200 -105.328 1 30 5 49
1981151N11255 1981 37 EP MM ADRIAN 1981-05-31 06:00:00 TS 12.4139 -105.036 30 hurdat_epa main 676 659 O_________P___ hurdat_epa EP011981 12.4000 -105.000 TD 30 -1 12.4557 -105.143 1 30 5 63
1981151N11255 1981 37 EP MM ADRIAN 1981-05-31 09:00:00 TS 12.5152 -104.827 main 659 641 P_________P___ EP011981 12.5075 -104.807 TD 30 -1 12.5385 -104.887 1 30 5 66
1981151N11255 1981 37 EP MM ADRIAN 1981-05-31 12:00:00 TS 12.6000 -104.600 30 hurdat_epa main 641 623 O_________O___ hurdat_epa EP011981 12.6000 -104.600 TD 30 -1 12.6000 -104.600 1 30 5 67
1981151N11255 1981 37 EP MM ADRIAN 1981-05-31 15:00:00 TS 12.7039 -104.363 main 623 597 P_________P___ EP011981 12.7075 -104.365 TD 32 -1 12.6934 -104.359 1 31 5 68
1981151N11255 1981 37 EP MM ADRIAN 1981-05-31 18:00:00 TS 12.7931 -104.099 35 hurdat_epa main 597 571 O_________P___ hurdat_epa EP011981 12.8000 -104.100 TS 35 0 12.7724 -104.095 1 32 6 74
1981151N11255 1981 37 EP MM ADRIAN 1981-05-31 21:00:00 TS 12.8531 -103.813 main 571 555 P_________P___ EP011981 12.8575 -103.815 TS 35 0 12.8402 -103.809 1 33 6 80
1981151N11255 1981 37 EP MM ADRIAN 1981-06-01 00:00:00 TS 12.9000 -103.500 35 hurdat_epa main 555 541 O_________O___ hurdat_epa EP011981 12.9000 -103.500 TS 35 0 12.9000 -103.500 2 35 6 81
1981151N11255 1981 37 EP MM ADRIAN 1981-06-01 03:00:00 TS 12.9518 -103.156 main 531 514 P_________P___ EP011981 12.9500 -103.157 TS 37 0 12.9573 -103.151 2 36 7 82
1981151N11255 1981 37 EP MM ADRIAN 1981-06-01 06:00:00 TS 13.0019 -102.796 40 hurdat_epa main 514 504 O_________P___ hurdat_epa EP011981 13.0000 -102.800 TS 40 0 13.0077 -102.785 2 37 7 82
1981151N11255 1981 37 EP MM ADRIAN 1981-06-01 09:00:00 TS 13.0510 -102.438 main 490 478 P_________P___ EP011981 13.0500 -102.442 TS 40 0 13.0542 -102.426 2 38 7 82
1981151N11255 1981 37 EP MM ADRIAN 1981-06-01 12:00:00 TS 13.1000 -102.100 40 hurdat_epa main 478 461 O_________O___ hurdat_epa EP011981 13.1000 -102.100 TS 40 0 13.1000 -102.100 2 40 6 81
1981151N11255 1981 37 EP MM ADRIAN 1981-06-01 15:00:00 TS 13.1479 -101.786 main 461 436 P_________P___ EP011981 13.1500 -101.770 TS 37 0 13.1416 -101.835 2 38 6 80
1981151N11255 1981 37 EP MM ADRIAN 1981-06-01 18:00:00 TS 13.1962 -101.526 35 hurdat_epa main 436 432 O_________P___ hurdat_epa EP011981 13.2000 -101.500 TS 35 0 13.1847 -101.605 2 37 4 78
1981151N11255 1981 37 EP MM ADRIAN 1981-06-01 21:00:00 TS 13.2407 -101.351 main 432 413 P_________P___ EP011981 13.2424 -101.335 TS 35 0 13.2355 -101.397 2 36 3 72
1981151N11255 1981 37 EP MM ADRIAN 1981-06-02 00:00:00 TS 13.3000 -101.200 35 hurdat_epa main 413 394 O_________O___ hurdat_epa EP011981 13.3000 -101.200 TS 35 0 13.3000 -101.200 2 35 4 66
1981151N11255 1981 37 EP MM ADRIAN 1981-06-02 03:00:00 TS 13.3898 -101.003 main 394 377 P_________P___ EP011981 13.3925 -101.008 TS 35 0 13.3815 -100.989 2 33 4 64
1981151N11255 1981 37 EP MM ADRIAN 1981-06-02 06:00:00 TS 13.4944 -100.796 35 hurdat_epa main 377 360 O_________P___ hurdat_epa EP011981 13.5000 -100.800 TS 35 0 13.4774 -100.785 2 32 5 63
1981151N11255 1981 37 EP MM ADRIAN 1981-06-02 09:00:00 TS 13.5962 -100.592 main 360 344 P_________P___ EP011981 13.6000 -100.592 TS 32 -1 13.5846 -100.589 2 31 4 62
1981151N11255 1981 37 EP MM ADRIAN 1981-06-02 12:00:00 TS 13.7000 -100.400 30 hurdat_epa main 344 330 O_________O___ hurdat_epa EP011981 13.7000 -100.400 TD 30 -1 13.7000 -100.400 1 30 4 59
1981151N11255 1981 37 EP MM ADRIAN 1981-06-02 15:00:00 TS 13.7988 -100.244 main 328 313 P_________P___ EP011981 13.7925 -100.250 TD 30 -1 13.8177 -100.226 1 28 4 55
1981151N11255 1981 37 EP MM ADRIAN 1981-06-02 18:00:00 TS 13.9106 -100.089 30 hurdat_epa main 313 292 O_________P___ hurdat_epa EP011981 13.9000 -100.100 TD 30 -1 13.9423 -100.057 1 27 4 53
1981151N11255 1981 37 EP MM ADRIAN 1981-06-02 21:00:00 TS 14.0496 -99.9019 main 292 263 P_________P___ EP011981 14.0425 -99.9075 TD 27 -1 14.0708 -99.8852 1 26 5 53
1981151N11255 1981 37 EP MM ADRIAN 1981-06-03 00:00:00 TS 14.2000 -99.7000 25 hurdat_epa main 263 243 O_________O___ hurdat_epa EP011981 14.2000 -99.7000 TD 25 -1 14.2000 -99.7000 1 25 5 53
1981151N11255 1981 37 EP MM ADRIAN 1981-06-03 03:00:00 TS 14.3473 -99.5029 main 243 215 P_________P___ EP011981 14.3575 -99.5075 TD 27 -1 14.3169 -99.4893 1 26 5 54
1981151N11255 1981 37 EP MM ADRIAN 1981-06-03 06:00:00 TS 14.4837 -99.2912 30 hurdat_epa main 215 197 O_________P___ hurdat_epa EP011981 14.5000 -99.3000 TD 30 -1 14.4350 -99.2649 1 27 5 61
1981151N11255 1981 37 EP MM ADRIAN 1981-06-03 09:00:00 TS 14.5902 -99.0457 main 195 180 P_________P___ EP011981 14.6000 -99.0500 TD 30 -1 14.5606 -99.0330 1 28 5 66
1981151N11255 1981 37 EP MM ADRIAN 1981-06-03 12:00:00 TS 14.7000 -98.8000 30 hurdat_epa main 180 159 O_________O___ hurdat_epa EP011981 14.7000 -98.8000 TD 30 -1 14.7000 -98.8000 1 30 5 61
1981151N11255 1981 37 EP MM ADRIAN 1981-06-03 15:00:00 TS 14.8346 -98.5923 main 159 129 P_________P___ EP011981 14.8349 -98.5999 TD 30 -1 14.8336 -98.5693 1 30 5 54
1981151N11255 1981 37 EP MM ADRIAN 1981-06-03 18:00:00 TS 14.9963 -98.3849 30 hurdat_epa main 129 99 O_________P___ hurdat_epa EP011981 15.0000 -98.4000 TD 30 -1 14.9852 -98.3396 1 30 6 52
1981151N11255 1981 37 EP MM ADRIAN 1981-06-03 21:00:00 TS 15.1754 -98.1413 main 95 68 P_________P___ EP011981 15.1775 -98.1500 TD 30 -1 15.1692 -98.1151 1 30 6 49
1981151N11255 1981 37 EP MM ADRIAN 1981-06-04 00:00:00 TS 15.4000 -97.9000 30 hurdat_epa main 68 33 O_________O___ hurdat_epa EP011981 15.4000 -97.9000 TD 30 -1 15.4000 -97.9000 1 30 7 41
1981151N11255 1981 37 EP MM ADRIAN 1981-06-04 03:00:00 TS 15.6831 -97.6899 main 33 0 P_________P___ EP011981 15.6825 -97.6876 TD 30 -1 15.6847 -97.6968 1 30 7 33
1981151N11255 1981 37 EP MM ADRIAN 1981-06-04 06:00:00 TS 16.0000 -97.5000 30 hurdat_epa main 0 O_________O___ hurdat_epa EP011981 16.0000 -97.5000 TD 30 -1 16.0000 -97.5000 1 30 7 30

About IBTrACS Database

This database is a web-friendly format of International Best Track Archive for Climate Stewardship (IBTrACS), a global best track data archive curated by NOAA dating back to 1842.

Updated: 2021-10-21